Time,TemperatureF,DewpointF,PressureIn,WindDirection,WindDirectionDegrees,WindSpeedMPH,WindSpeedGustMPH,Humidity,HourlyPrecipIn,Conditions,Clouds,dailyrainin,SoftwareType,DateUTC
2013-11-13 00:13:00,25.8,17.0,30.27,NW,323,8.0,14.0,69,0.00,,,0.00,weatherlink.com 1.10,2013-11-13 05:13:00,
2013-11-13 00:28:00,25.8,16.0,30.26,NNW,340,6.0,14.0,66,0.00,,,0.00,weatherlink.com 1.10,2013-11-13 05:28:00,
2013-11-13 00:43:00,25.8,15.0,30.27,NNW,332,5.0,12.0,65,0.00,,,0.00,weatherlink.com 1.10,2013-11-13 05:43:00,
2013-11-13 00:58:00,25.4,15.0,30.27,NNW,340,3.0,10.0,65,0.00,,,0.00,weatherlink.com 1.10,2013-11-13 05:58:00,
2013-11-13 01:13:00,25.1,15.0,30.28,NW,311,1.0,8.0,66,0.00,,,0.00,weatherlink.com 1.10,2013-11-13 06:13:00,
2013-11-13 01:28:00,24.9,15.0,30.28,WNW,293,4.0,8.0,66,0.00,,,0.00,weatherlink.com 1.10,2013-11-13 06:28:00,
2013-11-13 01:43:00,24.6,15.0,30.28,NNW,335,2.0,8.0,67,0.00,,,0.00,weatherlink.com 1.10,2013-11-13 06:43:00,
2013-11-13 01:58:00,24.6,15.0,30.29,NW,315,4.0,8.0,67,0.00,,,0.00,weatherlink.com 1.10,2013-11-13 06:58:00,
2013-11-13 02:13:00,24.6,15.0,30.29,NNW,330,5.0,8.0,68,0.00,,,0.00,weatherlink.com 1.10,2013-11-13 07:13:00,
2013-11-13 02:28:00,24.3,15.0,30.29,NNW,336,2.0,6.0,68,0.00,,,0.00,weatherlink.com 1.10,2013-11-13 07:28:00,
2013-11-13 02:43:00,24.3,15.0,30.29,NNW,342,2.0,9.0,69,0.00,,,0.00,weatherlink.com 1.10,2013-11-13 07:43:00,
2013-11-13 02:58:00,24.2,15.0,30.29,WNW,302,5.0,8.0,69,0.00,,,0.00,weatherlink.com 1.10,2013-11-13 07:58:00,
2013-11-13 03:14:00,23.8,15.0,30.29,NNW,333,4.0,7.0,70,0.00,,,0.00,weatherlink.com 1.10,2013-11-13 08:14:00,
2013-11-13 03:29:00,23.5,15.0,30.30,NNW,333,2.0,5.0,71,0.00,,,0.00,weatherlink.com 1.10,2013-11-13 08:29:00,
2013-11-13 03:44:00,23.5,15.0,30.30,NNW,337,2.0,7.0,71,0.00,,,0.00,weatherlink.com 1.10,2013-11-13 08:44:00,
2013-11-13 03:59:00,23.7,16.0,30.30,NW,315,3.0,6.0,71,0.00,,,0.00,weatherlink.com 1.10,2013-11-13 08:59:00,
2013-11-13 04:14:00,23.8,16.0,30.30,NNW,335,3.0,8.0,71,0.00,,,0.00,weatherlink.com 1.10,2013-11-13 09:14:00,
2013-11-13 04:29:00,24.1,16.0,30.30,NNW,337,6.0,6.0,70,0.00,,,0.00,weatherlink.com 1.10,2013-11-13 09:29:00,
2013-11-13 04:44:00,24.4,16.0,30.30,NW,316,1.0,6.0,70,0.00,,,0.00,weatherlink.com 1.10,2013-11-13 09:44:00,
2013-11-13 04:59:00,24.2,16.0,30.31,NNW,339,4.0,8.0,70,0.00,,,0.00,weatherlink.com 1.10,2013-11-13 09:59:00,
2013-11-13 05:14:00,24.1,16.0,30.31,NNW,332,0.0,5.0,71,0.00,,,0.00,weatherlink.com 1.10,2013-11-13 10:14:00,
2013-11-13 05:29:00,24.1,16.0,30.31,WNW,295,1.0,6.0,72,0.00,,,0.00,weatherlink.com 1.10,2013-11-13 10:29:00,
2013-11-13 05:44:00,24.0,17.0,30.32,NW,322,1.0,5.0,73,0.00,,,0.00,weatherlink.com 1.10,2013-11-13 10:44:00,
2013-11-13 05:59:00,24.0,17.0,30.32,NNE,16,3.0,7.0,73,0.00,,,0.00,weatherlink.com 1.10,2013-11-13 10:59:00,
2013-11-13 06:14:00,23.7,17.0,30.33,NNW,330,1.0,4.0,74,0.00,,,0.00,weatherlink.com 1.10,2013-11-13 11:14:00,
2013-11-13 06:29:00,23.9,17.0,30.34,NW,321,2.0,7.0,74,0.00,,,0.00,weatherlink.com 1.10,2013-11-13 11:29:00,
2013-11-13 06:44:00,24.2,17.0,30.35,NNW,332,0.0,5.0,74,0.00,,,0.00,weatherlink.com 1.10,2013-11-13 11:44:00,
2013-11-13 06:59:00,24.5,17.0,30.35,NW,311,0.0,6.0,72,0.00,,,0.00,weatherlink.com 1.10,2013-11-13 11:59:00,
2013-11-13 07:14:00,24.6,17.0,30.36,NW,325,4.0,5.0,72,0.00,,,0.00,weatherlink.com 1.10,2013-11-13 12:14:00,
2013-11-13 07:29:00,24.7,17.0,30.36,NW,322,1.0,8.0,71,0.00,,,0.00,weatherlink.com 1.10,2013-11-13 12:29:00,
2013-11-13 07:44:00,24.9,17.0,30.37,NW,316,2.0,7.0,71,0.00,,,0.00,weatherlink.com 1.10,2013-11-13 12:44:00,
2013-11-13 07:59:00,25.1,17.0,30.37,NNW,333,2.0,9.0,70,0.00,,,0.00,weatherlink.com 1.10,2013-11-13 12:59:00,
2013-11-13 08:14:00,25.3,16.0,30.37,NW,320,2.0,8.0,69,0.00,,,0.00,weatherlink.com 1.10,2013-11-13 13:14:00,
2013-11-13 08:29:00,25.6,17.0,30.37,NNW,333,1.0,8.0,69,0.00,,,0.00,weatherlink.com 1.10,2013-11-13 13:29:00,
2013-11-13 08:44:00,25.6,16.0,30.37,NNW,343,4.0,8.0,68,0.00,,,0.00,weatherlink.com 1.10,2013-11-13 13:44:00,
2013-11-13 08:59:00,25.9,16.0,30.38,NNW,332,11.0,18.0,65,0.00,,,0.00,weatherlink.com 1.10,2013-11-13 13:59:00,
2013-11-13 09:14:00,26.8,16.0,30.37,NW,321,4.0,13.0,65,0.00,,,0.00,weatherlink.com 1.10,2013-11-13 14:14:00,
2013-11-13 09:29:00,26.9,16.0,30.37,NNW,332,8.0,18.0,64,0.00,,,0.00,weatherlink.com 1.10,2013-11-13 14:29:00,
2013-11-13 09:44:00,27.9,16.0,30.37,NW,326,5.0,14.0,61,0.00,,,0.00,weatherlink.com 1.10,2013-11-13 14:44:00,
2013-11-13 09:59:00,28.4,16.0,30.37,North,9,4.0,14.0,61,0.00,,,0.00,weatherlink.com 1.10,2013-11-13 14:59:00,
2013-11-13 10:14:00,29.0,17.0,30.36,NW,307,16.0,16.0,60,0.00,,,0.00,weatherlink.com 1.10,2013-11-13 15:14:00,
2013-11-13 10:29:00,29.3,16.0,30.37,West,269,6.0,12.0,59,0.00,,,0.00,weatherlink.com 1.10,2013-11-13 15:29:00,
2013-11-13 10:44:00,30.0,15.0,30.36,WNW,302,7.0,19.0,55,0.00,,,0.00,weatherlink.com 1.10,2013-11-13 15:44:00,
2013-11-13 10:59:00,30.3,15.0,30.36,NNW,335,7.0,18.0,53,0.00,,,0.00,weatherlink.com 1.10,2013-11-13 15:59:00,
2013-11-13 11:15:00,30.8,14.0,30.35,NNW,335,8.0,20.0,51,0.00,,,0.00,weatherlink.com 1.10,2013-11-13 16:15:00,
2013-11-13 11:30:00,31.3,15.0,30.34,NNW,334,4.0,16.0,52,0.00,,,0.00,weatherlink.com 1.10,2013-11-13 16:30:00,
2013-11-13 11:45:00,31.5,14.0,30.34,NNW,333,12.0,19.0,49,0.00,,,0.00,weatherlink.com 1.10,2013-11-13 16:45:00,
2013-11-13 12:00:00,31.6,15.0,30.34,NW,320,8.0,18.0,50,0.00,,,0.00,weatherlink.com 1.10,2013-11-13 17:00:00,
2013-11-13 12:15:00,32.5,16.0,30.33,NW,316,9.0,17.0,50,0.00,,,0.00,weatherlink.com 1.10,2013-11-13 17:15:00,
2013-11-13 12:30:00,32.5,15.0,30.32,WNW,297,5.0,15.0,49,0.00,,,0.00,weatherlink.com 1.10,2013-11-13 17:30:00,
2013-11-13 12:45:00,32.9,15.0,30.32,WNW,297,11.0,17.0,48,0.00,,,0.00,weatherlink.com 1.10,2013-11-13 17:45:00,
2013-11-13 13:00:00,33.8,15.0,30.32,WSW,249,5.0,16.0,47,0.00,,,0.00,weatherlink.com 1.10,2013-11-13 18:00:00,
2013-11-13 13:15:00,33.4,16.0,30.32,NW,316,12.0,15.0,49,0.00,,,0.00,weatherlink.com 1.10,2013-11-13 18:15:00,
2013-11-13 13:30:00,33.7,16.0,30.32,NW,326,5.0,16.0,49,0.00,,,0.00,weatherlink.com 1.10,2013-11-13 18:30:00,
2013-11-13 13:45:00,34.2,16.0,30.32,North,356,6.0,17.0,48,0.00,,,0.00,weatherlink.com 1.10,2013-11-13 18:45:00,
2013-11-13 14:00:00,33.4,16.0,30.31,NNW,339,9.0,15.0,50,0.00,,,0.00,weatherlink.com 1.10,2013-11-13 19:00:00,
2013-11-13 14:15:00,33.4,17.0,30.30,NW,304,3.0,9.0,52,0.00,,,0.00,weatherlink.com 1.10,2013-11-13 19:15:00,
2013-11-13 14:30:00,34.0,18.0,30.30,NW,321,13.0,19.0,52,0.00,,,0.00,weatherlink.com 1.10,2013-11-13 19:30:00,
2013-11-13 14:45:00,34.2,19.0,30.29,NW,319,4.0,13.0,53,0.00,,,0.00,weatherlink.com 1.10,2013-11-13 19:45:00,
2013-11-13 15:00:00,34.7,18.0,30.29,NNW,339,6.0,12.0,51,0.00,,,0.00,weatherlink.com 1.10,2013-11-13 20:00:00,
2013-11-13 15:15:00,34.7,19.0,30.29,NW,311,3.0,11.0,52,0.00,,,0.00,weatherlink.com 1.10,2013-11-13 20:15:00,
2013-11-13 15:30:00,34.4,18.0,30.29,NW,319,7.0,14.0,51,0.00,,,0.00,weatherlink.com 1.10,2013-11-13 20:30:00,
2013-11-13 15:45:00,34.3,18.0,30.29,NW,311,5.0,11.0,52,0.00,,,0.00,weatherlink.com 1.10,2013-11-13 20:45:00,
2013-11-13 16:00:00,33.0,18.0,30.29,NW,304,6.0,10.0,55,0.00,,,0.00,weatherlink.com 1.10,2013-11-13 21:00:00,
2013-11-13 16:15:00,32.6,18.0,30.29,NW,316,3.0,6.0,56,0.00,,,0.00,weatherlink.com 1.10,2013-11-13 21:15:00,
2013-11-13 16:30:00,32.3,19.0,30.29,NNW,328,3.0,11.0,58,0.00,,,0.00,weatherlink.com 1.10,2013-11-13 21:30:00,
2013-11-13 16:45:00,31.7,19.0,30.29,NNW,334,2.0,4.0,59,0.00,,,0.00,weatherlink.com 1.10,2013-11-13 21:45:00,
2013-11-13 17:00:00,30.8,19.0,30.29,West,269,0.0,2.0,61,0.00,,,0.00,weatherlink.com 1.10,2013-11-13 22:00:00,
2013-11-13 17:15:00,29.0,19.0,30.29,SSE,155,0.0,1.0,65,0.00,,,0.00,weatherlink.com 1.10,2013-11-13 22:15:00,
2013-11-13 17:30:00,28.0,19.0,30.30,SSE,160,0.0,1.0,68,0.00,,,0.00,weatherlink.com 1.10,2013-11-13 22:30:00,
2013-11-13 17:45:00,27.4,18.0,30.29,SSE,150,0.0,1.0,69,0.00,,,0.00,weatherlink.com 1.10,2013-11-13 22:45:00,
2013-11-13 18:00:00,27.0,19.0,30.29,SSE,150,0.0,1.0,71,0.00,,,0.00,weatherlink.com 1.10,2013-11-13 23:00:00,
2013-11-13 18:15:00,26.2,19.0,30.29,SSE,150,0.0,0.0,74,0.00,,,0.00,weatherlink.com 1.10,2013-11-13 23:15:00,
2013-11-13 18:30:00,25.4,19.0,30.28,SSE,150,0.0,1.0,76,0.00,,,0.00,weatherlink.com 1.10,2013-11-13 23:30:00,
2013-11-13 18:45:00,24.8,19.0,30.29,SSE,150,0.0,1.0,80,0.00,,,0.00,weatherlink.com 1.10,2013-11-13 23:45:00,
2013-11-13 19:00:00,24.3,19.0,30.28,SSE,150,0.0,1.0,80,0.00,,,0.00,weatherlink.com 1.10,2013-11-14 00:00:00,
2013-11-13 19:15:00,24.2,19.0,30.28,SW,224,0.0,1.0,80,0.00,,,0.00,weatherlink.com 1.10,2013-11-14 00:15:00,
2013-11-13 19:30:00,24.0,19.0,30.27,SW,224,0.0,1.0,80,0.00,,,0.00,weatherlink.com 1.10,2013-11-14 00:30:00,
2013-11-13 19:45:00,23.8,19.0,30.27,SW,224,0.0,1.0,80,0.00,,,0.00,weatherlink.com 1.10,2013-11-14 00:45:00,
2013-11-13 20:00:00,23.6,19.0,30.27,NNW,332,0.0,2.0,81,0.00,,,0.00,weatherlink.com 1.10,2013-11-14 01:00:00,
2013-11-13 20:15:00,23.0,18.0,30.27,NNW,330,0.0,1.0,82,0.00,,,0.00,weatherlink.com 1.10,2013-11-14 01:15:00,
2013-11-13 20:30:00,22.8,18.0,30.26,NNW,335,0.0,1.0,82,0.00,,,0.00,weatherlink.com 1.10,2013-11-14 01:30:00,
2013-11-13 20:45:00,22.8,18.0,30.26,NNW,333,0.0,1.0,83,0.00,,,0.00,weatherlink.com 1.10,2013-11-14 01:45:00,
2013-11-13 21:00:00,22.4,18.0,30.25,NNW,331,0.0,0.0,83,0.00,,,0.00,weatherlink.com 1.10,2013-11-14 02:00:00,
2013-11-13 21:15:00,23.3,18.0,30.24,ESE,112,0.0,2.0,81,0.00,,,0.00,weatherlink.com 1.10,2013-11-14 02:15:00,
2013-11-13 21:30:00,25.2,19.0,30.24,SE,136,2.0,4.0,77,0.00,,,0.00,weatherlink.com 1.10,2013-11-14 02:30:00,
2013-11-13 21:45:00,28.1,19.0,30.23,SE,143,4.0,9.0,69,0.00,,,0.00,weatherlink.com 1.10,2013-11-14 02:45:00,
2013-11-13 22:00:00,28.4,19.0,30.23,SE,141,1.0,5.0,67,0.00,,,0.00,weatherlink.com 1.10,2013-11-14 03:00:00,
2013-11-13 22:16:00,26.7,18.0,30.22,SE,131,0.0,2.0,71,0.00,,,0.00,weatherlink.com 1.10,2013-11-14 03:16:00,
2013-11-13 22:31:00,26.1,18.0,30.21,ESE,120,0.0,1.0,72,0.00,,,0.00,weatherlink.com 1.10,2013-11-14 03:31:00,
2013-11-13 22:46:00,24.2,18.0,30.20,ENE,72,0.0,1.0,76,0.00,,,0.00,weatherlink.com 1.10,2013-11-14 03:46:00,
2013-11-13 23:01:00,23.1,18.0,30.20,NNW,327,0.0,2.0,79,0.00,,,0.00,weatherlink.com 1.10,2013-11-14 04:01:00,
2013-11-13 23:16:00,24.6,18.0,30.19,NE,49,0.0,3.0,77,0.00,,,0.00,weatherlink.com 1.10,2013-11-14 04:16:00,
2013-11-13 23:31:00,25.4,19.0,30.19,ENE,75,0.0,1.0,75,0.00,,,0.00,weatherlink.com 1.10,2013-11-14 04:31:00,
2013-11-13 23:46:00,24.9,19.0,30.18,WSW,248,1.0,1.0,77,0.00,,,0.00,weatherlink.com 1.10,2013-11-14 04:46:00,